Terminal Aerodrome Forecast
Issued by NWS

Current Version | Previous Version | Graphics & Text | Print | Product List | Glossary On
Versions: 1 2 3 4 5 6 7 8 9 10 11 12 13 14 15 16 17 18 19 20 21 22 23 24 25
716
FTUS41 KRLX 271120
TAFCKB
TAF
KCKB 271120Z 2712/2812 15006KT P6SM FEW250
     FM271600 19009G17KT P6SM SCT250
     FM271900 21009G19KT P6SM VCTS BKN060CB
      TEMPO 2719/2723 3SM SHRA OVC025
     FM272300 22008KT P6SM BKN040
     FM280700 00000KT P6SM BKN050
     FM281100 00000KT P6SM SCT040=

USA.gov is the U.S. government's official web portal to all federal, state and local government web resources and services.